createdAt,value
2023-02-21T00:02:16.879Z,5.91
2023-02-21T00:05:07.588Z,5.86
2023-02-21T00:08:02.100Z,5.90
2023-02-21T00:11:03.684Z,5.90
2023-02-21T00:14:00.111Z,5.90
2023-02-21T00:16:53.452Z,5.88
2023-02-21T00:19:51.336Z,5.87
2023-02-21T00:22:44.284Z,5.86
2023-02-21T00:25:40.407Z,5.84
2023-02-21T00:28:49.141Z,5.84
2023-02-21T00:31:40.764Z,5.82
2023-02-21T00:34:37.614Z,5.81
2023-02-21T00:37:29.515Z,5.78
2023-02-21T00:40:40.901Z,5.77
2023-02-21T00:43:36.854Z,5.77
2023-02-21T00:46:29.187Z,5.70
2023-02-21T00:49:20.669Z,5.73
2023-02-21T00:52:17.879Z,5.71
2023-02-21T00:55:10.680Z,5.71
2023-02-21T00:58:20.637Z,5.69
2023-02-21T01:01:14.556Z,5.67
2023-02-21T01:04:32.809Z,5.63
2023-02-21T01:07:37.904Z,5.65
2023-02-21T01:10:28.630Z,5.61
2023-02-21T01:13:27.573Z,5.62
2023-02-21T01:16:18.688Z,5.62
2023-02-21T01:19:33.694Z,5.60
2023-02-21T01:22:26.936Z,5.58
2023-02-21T01:25:39.268Z,5.61
2023-02-21T01:28:34.056Z,5.59
2023-02-21T01:31:27.868Z,5.57
2023-02-21T01:34:23.748Z,5.52
2023-02-21T01:37:15.874Z,5.54
2023-02-21T01:40:41.756Z,5.52
2023-02-21T01:43:44.431Z,5.50
2023-02-21T01:46:50.436Z,5.47
2023-02-21T01:52:20.539Z,5.51
2023-02-21T01:55:13.337Z,5.51
2023-02-21T01:58:05.221Z,5.50
2023-02-21T02:00:56.539Z,5.48
2023-02-21T02:03:49.687Z,5.47
2023-02-21T02:06:39.959Z,5.45
2023-02-21T02:09:38.249Z,5.45
2023-02-21T02:12:24.954Z,5.43
2023-02-21T02:15:07.201Z,5.42
2023-02-21T02:17:48.143Z,5.44
2023-02-21T02:20:48.543Z,5.43
2023-02-21T02:23:35.514Z,5.44
2023-02-21T02:26:32.671Z,5.47
2023-02-21T02:29:38.766Z,5.47
2023-02-21T02:32:10.549Z,5.50
2023-02-21T02:35:39.938Z,5.53
2023-02-21T02:38:27.095Z,5.52
2023-02-21T02:41:14.105Z,5.51
2023-02-21T02:43:52.485Z,5.49
2023-02-21T02:46:29.070Z,5.47
2023-02-21T02:49:10.757Z,5.43
2023-02-21T02:51:42.408Z,5.42
2023-02-21T02:54:17.352Z,5.40
2023-02-21T02:56:51.927Z,5.40
2023-02-21T02:59:29.271Z,5.40
2023-02-21T03:02:36.192Z,5.40
2023-02-21T03:05:30.938Z,5.38
2023-02-21T03:08:35.499Z,5.38
2023-02-21T03:11:18.929Z,5.39
2023-02-21T03:14:09.929Z,5.39
2023-02-21T03:16:51.651Z,5.38
2023-02-21T03:19:28.728Z,5.37
2023-02-21T03:22:05.890Z,5.38
2023-02-21T03:24:40.504Z,5.37
2023-02-21T03:27:13.328Z,5.35
2023-02-21T03:29:45.881Z,5.36
2023-02-21T03:32:24.084Z,5.39
2023-02-21T03:34:56.048Z,5.40
2023-02-21T03:37:52.808Z,5.42
2023-02-21T03:40:29.085Z,5.42
2023-02-21T03:43:02.761Z,5.41
2023-02-21T03:45:34.985Z,5.41
2023-02-21T03:48:07.103Z,5.41
2023-02-21T03:50:39.159Z,5.42
2023-02-21T03:53:11.638Z,5.40
2023-02-21T03:55:43.392Z,5.41
2023-02-21T03:58:16.380Z,5.43
2023-02-21T04:00:48.671Z,5.44
2023-02-21T04:03:20.538Z,5.42
2023-02-21T04:05:52.439Z,5.42
2023-02-21T04:08:24.140Z,5.42
2023-02-21T04:10:55.716Z,5.45
2023-02-21T04:13:28.180Z,5.45
2023-02-21T04:15:59.810Z,5.44
2023-02-21T04:18:31.570Z,5.44
2023-02-21T04:21:03.334Z,5.43
2023-02-21T04:23:34.911Z,5.45
2023-02-21T04:26:06.787Z,5.44
2023-02-21T04:28:38.415Z,5.44
2023-02-21T04:31:10.018Z,5.43
2023-02-21T04:33:42.072Z,5.42
2023-02-21T04:36:14.044Z,5.43
2023-02-21T04:38:45.677Z,5.43
2023-02-21T04:41:17.796Z,5.41
2023-02-21T04:43:49.901Z,5.39
2023-02-21T04:46:21.773Z,5.38
2023-02-21T04:48:54.030Z,5.36
2023-02-21T04:51:26.475Z,5.35
2023-02-21T04:53:58.434Z,5.34
2023-02-21T04:56:30.204Z,5.35
2023-02-21T04:59:02.108Z,5.35
2023-02-21T05:01:34.428Z,5.36
2023-02-21T05:04:06.208Z,5.38
2023-02-21T05:06:37.900Z,5.38
2023-02-21T05:09:09.659Z,5.38
2023-02-21T05:11:41.680Z,5.37
2023-02-21T05:14:13.353Z,5.37
2023-02-21T05:16:45.073Z,5.37
2023-02-21T05:19:27.871Z,5.39
2023-02-21T05:22:02.119Z,5.39
2023-02-21T05:24:34.757Z,5.39
2023-02-21T05:27:06.379Z,5.39
2023-02-21T05:29:38.016Z,5.38
2023-02-21T05:32:09.660Z,5.39
2023-02-21T05:34:44.835Z,5.41
2023-02-21T05:37:18.115Z,5.40
2023-02-21T05:39:50.076Z,5.40
2023-02-21T05:42:21.788Z,5.40
2023-02-21T05:44:53.584Z,5.41
2023-02-21T05:47:25.753Z,5.42
2023-02-21T05:49:59.622Z,5.41
2023-02-21T05:52:31.480Z,5.41
2023-02-21T05:55:03.166Z,5.40
2023-02-21T05:57:39.616Z,5.39
2023-02-21T06:00:30.642Z,5.38
2023-02-21T06:03:04.795Z,5.37
2023-02-21T06:05:36.734Z,5.35
2023-02-21T06:08:11.038Z,5.33
2023-02-21T06:10:48.601Z,5.33
2023-02-21T06:13:20.400Z,5.36
2023-02-21T06:15:52.244Z,5.36
2023-02-21T06:18:23.991Z,5.37
2023-02-21T06:20:55.638Z,5.37
2023-02-21T06:23:27.382Z,5.37
2023-02-21T06:26:00.102Z,5.37
2023-02-21T06:28:32.467Z,5.37
2023-02-21T06:31:05.549Z,5.37
2023-02-21T06:33:37.565Z,5.40
2023-02-21T06:36:15.298Z,5.37
2023-02-21T06:38:51.452Z,5.41
2023-02-21T06:41:27.141Z,5.41
2023-02-21T06:43:59.908Z,5.40
2023-02-21T06:46:31.759Z,5.40
2023-02-21T06:49:07.221Z,5.39
2023-02-21T06:51:41.233Z,5.39
2023-02-21T06:54:13.888Z,5.41
2023-02-21T06:56:45.508Z,5.44
2023-02-21T06:59:17.294Z,5.45
2023-02-21T07:01:49.231Z,5.47
2023-02-21T07:04:21.051Z,5.49
2023-02-21T07:06:53.291Z,5.53
2023-02-21T07:09:25.244Z,5.52
2023-02-21T07:11:56.960Z,5.53
2023-02-21T07:14:28.841Z,5.55
2023-02-21T07:17:00.460Z,5.55
2023-02-21T07:19:35.401Z,5.57
2023-02-21T07:22:07.138Z,5.60
2023-02-21T07:24:38.831Z,5.62
2023-02-21T07:27:10.509Z,5.61
2023-02-21T07:29:42.270Z,5.62
2023-02-21T07:32:15.131Z,5.65
2023-02-21T07:34:46.915Z,5.69
2023-02-21T07:37:18.671Z,5.71
2023-02-21T07:39:50.370Z,5.73
2023-02-21T07:42:21.973Z,5.73
2023-02-21T07:44:57.808Z,5.74
2023-02-21T07:47:30.761Z,5.78
2023-02-21T07:50:04.470Z,5.81
2023-02-21T07:52:36.060Z,5.86
2023-02-21T07:55:08.612Z,5.89
2023-02-21T07:57:40.458Z,5.93
2023-02-21T08:00:12.921Z,5.96
2023-02-21T08:02:50.978Z,5.98
2023-02-21T08:05:23.289Z,5.97
2023-02-21T08:07:56.190Z,5.99
2023-02-21T08:10:29.545Z,6.00
2023-02-21T08:13:01.241Z,6.02
2023-02-21T08:15:33.024Z,6.05
2023-02-21T08:18:07.302Z,6.06
2023-02-21T08:20:39.032Z,6.05
2023-02-21T08:23:10.647Z,6.04
2023-02-21T08:25:42.241Z,6.04
2023-02-21T08:28:14.978Z,6.03
2023-02-21T08:30:46.790Z,6.05
2023-02-21T08:33:18.540Z,6.05
2023-02-21T08:35:50.442Z,6.12
2023-02-21T08:38:22.190Z,6.17
2023-02-21T08:40:55.964Z,6.20
2023-02-21T08:43:29.172Z,6.22
2023-02-21T08:46:01.418Z,6.19
2023-02-21T08:48:33.242Z,6.21
2023-02-21T08:51:05.169Z,6.20
2023-02-21T08:53:37.003Z,6.22
2023-02-21T08:56:08.660Z,6.22
2023-02-21T08:58:40.422Z,6.20
2023-02-21T09:01:13.329Z,6.16
2023-02-21T09:03:45.153Z,6.17
2023-02-21T09:06:18.017Z,6.13
2023-02-21T09:08:49.689Z,6.12
2023-02-21T09:11:21.756Z,6.14
2023-02-21T09:13:55.411Z,6.16
2023-02-21T09:16:26.941Z,6.17
2023-02-21T09:19:01.534Z,6.18
2023-02-21T09:21:34.481Z,6.19
2023-02-21T09:24:06.397Z,6.20
2023-02-21T09:26:38.142Z,6.20
2023-02-21T09:29:12.889Z,6.23
2023-02-21T09:31:44.654Z,6.24
2023-02-21T09:34:17.159Z,6.25
2023-02-21T09:36:50.938Z,6.29
2023-02-21T09:39:23.277Z,6.31
2023-02-21T09:41:57.603Z,6.33
2023-02-21T09:44:30.508Z,6.35
2023-02-21T09:47:05.597Z,6.33
2023-02-21T09:49:40.899Z,6.33
2023-02-21T09:52:30.636Z,6.37
2023-02-21T09:55:09.119Z,6.40
2023-02-21T09:57:40.772Z,6.43
2023-02-21T10:00:26.033Z,6.42
2023-02-21T10:03:10.069Z,6.44
2023-02-21T10:05:57.998Z,6.47
2023-02-21T10:08:45.047Z,6.50
2023-02-21T10:11:36.850Z,6.49
2023-02-21T10:14:23.408Z,6.50
2023-02-21T10:17:34.079Z,6.48
2023-02-21T10:20:14.352Z,6.48
2023-02-21T10:22:48.466Z,6.48
2023-02-21T10:25:30.758Z,6.45
2023-02-21T10:28:02.512Z,6.44
2023-02-21T10:30:37.508Z,6.42
2023-02-21T10:33:10.801Z,6.43
2023-02-21T10:35:42.799Z,6.41
2023-02-21T10:38:19.853Z,6.38
2023-02-21T10:40:58.644Z,6.41
2023-02-21T10:43:50.686Z,6.44
2023-02-21T10:46:30.254Z,6.47
2023-02-21T10:49:17.602Z,6.52
2023-02-21T10:52:04.100Z,6.58
2023-02-21T10:54:35.964Z,6.67
2023-02-21T10:57:11.919Z,6.70
2023-02-21T10:59:43.982Z,6.68
2023-02-21T11:02:40.362Z,6.65
2023-02-21T11:05:16.806Z,6.67
2023-02-21T11:08:04.389Z,6.65
2023-02-21T11:10:44.333Z,6.65
2023-02-21T11:13:25.210Z,6.66
2023-02-21T11:16:16.590Z,6.70
2023-02-21T11:19:05.456Z,6.69
2023-02-21T11:21:39.474Z,6.73
2023-02-21T11:24:12.660Z,6.75
2023-02-21T11:26:53.484Z,6.77
2023-02-21T11:29:27.302Z,6.79
2023-02-21T11:31:59.056Z,6.76
2023-02-21T11:34:31.389Z,6.77
2023-02-21T11:37:05.079Z,6.78
2023-02-21T11:39:36.754Z,6.72
2023-02-21T11:42:34.538Z,6.70
2023-02-21T11:45:29.928Z,6.72
2023-02-21T11:48:05.156Z,6.70
2023-02-21T11:50:47.040Z,6.67
2023-02-21T11:53:29.353Z,6.69
2023-02-21T11:56:15.151Z,6.80
2023-02-21T11:59:08.358Z,6.85
2023-02-21T12:01:47.189Z,6.87
2023-02-21T12:04:34.795Z,6.85
2023-02-21T12:08:02.235Z,6.82
2023-02-21T12:10:37.055Z,6.77
2023-02-21T12:13:27.383Z,6.76
2023-02-21T12:16:22.133Z,6.76
2023-02-21T12:19:25.835Z,6.77
2023-02-21T12:22:31.951Z,6.78
2023-02-21T12:25:17.632Z,6.78
2023-02-21T12:27:58.832Z,6.82
2023-02-21T12:30:40.707Z,6.91
2023-02-21T12:33:30.804Z,6.99
2023-02-21T12:36:17.587Z,7.03
2023-02-21T12:38:52.031Z,7.08
2023-02-21T12:41:56.315Z,7.09
2023-02-21T12:44:48.897Z,7.09
2023-02-21T12:47:33.673Z,7.10
2023-02-21T12:50:25.350Z,7.12
2023-02-21T12:53:05.133Z,7.13
2023-02-21T12:55:41.013Z,7.12
2023-02-21T12:58:31.196Z,7.09
2023-02-21T13:01:20.893Z,7.05
2023-02-21T13:04:21.085Z,7.02
2023-02-21T13:07:01.254Z,7.00
2023-02-21T13:09:49.013Z,6.99
2023-02-21T13:12:45.517Z,6.97
2023-02-21T13:15:24.091Z,6.94
2023-02-21T13:18:17.769Z,6.91
2023-02-21T13:21:08.584Z,6.91
2023-02-21T13:24:09.406Z,6.94
2023-02-21T13:26:55.559Z,6.94
2023-02-21T13:29:36.144Z,6.97
2023-02-21T13:32:17.430Z,7.02
2023-02-21T13:35:01.381Z,7.06
2023-02-21T13:37:36.026Z,7.12
2023-02-21T13:40:21.530Z,7.13
2023-02-21T13:43:03.148Z,7.07
2023-02-21T13:45:35.073Z,7.02
2023-02-21T13:48:06.733Z,7.00
2023-02-21T13:50:39.285Z,7.01
2023-02-21T13:53:17.513Z,7.00
2023-02-21T13:56:09.404Z,7.04
2023-02-21T13:58:45.202Z,7.06
2023-02-21T14:01:40.674Z,7.00
2023-02-21T14:04:50.314Z,6.96
2023-02-21T14:07:57.309Z,6.93
2023-02-21T14:10:40.149Z,6.92
2023-02-21T14:13:22.619Z,6.90
2023-02-21T14:16:08.582Z,6.89
2023-02-21T14:18:40.340Z,6.87
2023-02-21T14:21:34.797Z,6.82
2023-02-21T14:24:17.522Z,6.78
2023-02-21T14:26:52.298Z,6.78
2023-02-21T14:29:40.901Z,6.76
2023-02-21T14:32:12.736Z,6.76
2023-02-21T14:34:47.515Z,6.71
2023-02-21T14:37:22.042Z,6.68
2023-02-21T14:40:32.978Z,6.69
2023-02-21T14:43:07.886Z,6.68
2023-02-21T14:45:42.124Z,6.66
2023-02-21T14:48:34.539Z,6.65
2023-02-21T14:51:34.094Z,6.64
2023-02-21T14:54:37.495Z,6.63
2023-02-21T14:57:28.095Z,6.57
2023-02-21T15:00:22.912Z,6.53
2023-02-21T15:03:28.858Z,6.49
2023-02-21T15:06:02.948Z,6.47
2023-02-21T15:08:47.247Z,6.46
2023-02-21T15:11:28.925Z,6.44
2023-02-21T15:14:23.812Z,6.43
2023-02-21T15:16:56.873Z,6.43
2023-02-21T15:19:34.605Z,6.42
2023-02-21T15:22:27.190Z,6.41
2023-02-21T15:25:07.724Z,6.40
2023-02-21T15:27:45.037Z,6.37
2023-02-21T15:30:23.072Z,6.35
2023-02-21T15:32:59.723Z,6.33
2023-02-21T15:35:35.851Z,6.34
2023-02-21T15:38:15.664Z,6.32
2023-02-21T15:40:48.446Z,6.31
2023-02-21T15:43:35.623Z,6.29
2023-02-21T15:46:11.836Z,6.27
2023-02-21T15:48:43.725Z,6.24
2023-02-21T15:51:17.221Z,6.20
2023-02-21T15:54:08.214Z,6.16
2023-02-21T15:56:39.790Z,6.12
2023-02-21T15:59:18.720Z,6.08
2023-02-21T16:02:15.297Z,6.03
2023-02-21T16:04:49.633Z,6.00
2023-02-21T16:07:35.583Z,5.96
2023-02-21T16:10:13.937Z,5.93
2023-02-21T16:12:46.927Z,5.92
2023-02-21T16:15:18.502Z,5.92
2023-02-21T16:17:56.410Z,5.90
2023-02-21T16:20:32.180Z,5.89
2023-02-21T16:23:24.853Z,5.88
2023-02-21T16:26:00.615Z,5.89
2023-02-21T16:28:32.789Z,5.89
2023-02-21T16:31:07.469Z,5.89
2023-02-21T16:33:39.095Z,5.90
2023-02-21T16:36:21.081Z,5.87
2023-02-21T16:38:54.107Z,5.85
2023-02-21T16:41:26.566Z,5.84
2023-02-21T16:44:00.914Z,5.81
2023-02-21T16:46:32.503Z,5.79
2023-02-21T16:49:04.108Z,5.75
2023-02-21T16:51:36.136Z,5.72
2023-02-21T16:54:09.559Z,5.68
2023-02-21T16:56:45.121Z,5.66
2023-02-21T16:59:19.635Z,5.64
2023-02-21T17:01:51.860Z,5.62
2023-02-21T17:04:29.715Z,5.57
2023-02-21T17:07:04.601Z,5.52
2023-02-21T17:09:39.520Z,5.50
2023-02-21T17:12:12.864Z,5.45
2023-02-21T17:14:44.879Z,5.44
2023-02-21T17:17:17.847Z,5.41
2023-02-21T17:19:49.500Z,5.38
2023-02-21T17:22:21.257Z,5.35
2023-02-21T17:24:53.108Z,5.34
2023-02-21T17:27:24.792Z,5.31
2023-02-21T17:29:56.457Z,5.29
2023-02-21T17:32:28.211Z,5.26
2023-02-21T17:34:59.958Z,5.23
2023-02-21T17:37:31.579Z,5.20
2023-02-21T17:40:03.754Z,5.17
2023-02-21T17:42:35.383Z,5.13
2023-02-21T17:45:07.453Z,5.11
2023-02-21T17:47:39.160Z,5.12
2023-02-21T17:50:10.865Z,5.13
2023-02-21T17:52:43.286Z,5.10
2023-02-21T17:55:21.750Z,5.06
2023-02-21T17:57:53.615Z,5.02
2023-02-21T18:00:28.258Z,4.99
2023-02-21T18:03:02.103Z,4.95
2023-02-21T18:05:37.547Z,4.92
2023-02-21T18:08:09.195Z,4.87
2023-02-21T18:10:46.015Z,4.80
2023-02-21T18:13:21.985Z,4.75
2023-02-21T18:15:53.654Z,4.72
2023-02-21T18:18:25.624Z,4.69
2023-02-21T18:20:59.524Z,4.66
2023-02-21T18:23:32.626Z,4.63
2023-02-21T18:26:05.380Z,4.57
2023-02-21T18:28:37.185Z,4.51
2023-02-21T18:31:10.872Z,4.47
2023-02-21T18:33:43.246Z,4.44
2023-02-21T18:36:14.911Z,4.40
2023-02-21T18:38:46.948Z,4.38
2023-02-21T18:41:20.625Z,4.34
2023-02-21T18:43:52.145Z,4.27
2023-02-21T18:46:24.247Z,4.22
2023-02-21T18:48:55.911Z,4.16
2023-02-21T18:51:27.503Z,4.11
2023-02-21T18:53:59.118Z,4.09
2023-02-21T18:56:30.700Z,4.06
2023-02-21T18:59:02.420Z,4.02
2023-02-21T19:01:34.062Z,4.00
2023-02-21T19:04:05.788Z,3.96
2023-02-21T19:06:37.420Z,3.92
2023-02-21T19:09:08.974Z,3.91
2023-02-21T19:11:40.826Z,3.89
2023-02-21T19:14:12.502Z,3.87
2023-02-21T19:16:44.260Z,3.88
2023-02-21T19:19:16.019Z,3.88
2023-02-21T19:21:47.648Z,3.86
2023-02-21T19:24:19.184Z,3.85
2023-02-21T19:26:50.930Z,3.83
2023-02-21T19:29:22.623Z,3.80
2023-02-21T19:31:54.502Z,3.76
2023-02-21T19:34:26.300Z,3.73
2023-02-21T19:36:57.876Z,3.73
2023-02-21T19:39:29.524Z,3.72
2023-02-21T19:42:01.095Z,3.73
2023-02-21T19:44:32.704Z,3.73
2023-02-21T19:47:04.610Z,3.74
2023-02-21T19:49:36.625Z,3.75
2023-02-21T19:52:08.294Z,3.76
2023-02-21T19:54:39.972Z,3.76
2023-02-21T19:57:11.568Z,3.76
2023-02-21T19:59:43.189Z,3.78
2023-02-21T20:02:16.424Z,3.79
2023-02-21T20:04:49.368Z,3.82
2023-02-21T20:07:21.272Z,3.84
2023-02-21T20:09:53.543Z,3.82
2023-02-21T20:12:25.144Z,3.80
2023-02-21T20:14:56.817Z,3.79
2023-02-21T20:17:28.420Z,3.78
2023-02-21T20:20:00.137Z,3.80
2023-02-21T20:22:34.020Z,3.81
2023-02-21T20:25:07.180Z,3.81
2023-02-21T20:27:38.825Z,3.75
2023-02-21T20:30:11.111Z,3.69
2023-02-21T20:32:43.817Z,3.61
2023-02-21T20:35:16.459Z,3.52
2023-02-21T20:37:48.252Z,3.47
2023-02-21T20:40:21.256Z,3.41
2023-02-21T20:42:53.353Z,3.40
2023-02-21T20:45:25.404Z,3.41
2023-02-21T20:47:57.067Z,3.41
2023-02-21T20:50:30.647Z,3.41
2023-02-21T20:53:03.006Z,3.35
2023-02-21T20:55:37.434Z,3.28
2023-02-21T20:58:10.587Z,3.19
2023-02-21T21:00:42.805Z,3.10
2023-02-21T21:03:16.233Z,3.01
2023-02-21T21:05:50.717Z,2.95
2023-02-21T21:08:22.341Z,2.86
2023-02-21T21:10:54.080Z,2.81
2023-02-21T21:13:26.251Z,2.78
2023-02-21T21:15:59.592Z,2.79
2023-02-21T21:18:32.215Z,2.79
2023-02-21T21:21:09.694Z,2.78
2023-02-21T21:23:41.493Z,2.77
2023-02-21T21:26:13.950Z,2.76
2023-02-21T21:28:45.662Z,2.75
2023-02-21T21:31:19.323Z,2.71
2023-02-21T21:33:51.919Z,2.68
2023-02-21T21:36:24.595Z,2.66
2023-02-21T21:38:57.287Z,2.64
2023-02-21T21:41:33.306Z,2.63
2023-02-21T21:44:05.734Z,2.62
2023-02-21T21:46:39.492Z,2.59
2023-02-21T21:49:15.184Z,2.56
2023-02-21T21:51:48.224Z,2.54
2023-02-21T21:54:22.692Z,2.51
2023-02-21T21:56:55.259Z,2.48
2023-02-21T21:59:27.122Z,2.48
2023-02-21T22:01:59.493Z,2.46
2023-02-21T22:04:31.155Z,2.44
2023-02-21T22:07:05.922Z,2.43
2023-02-21T22:09:38.177Z,2.41
2023-02-21T22:12:21.102Z,2.35
2023-02-21T22:14:52.865Z,2.33
2023-02-21T22:17:24.509Z,2.33
2023-02-21T22:19:56.066Z,2.34
2023-02-21T22:22:28.086Z,2.33
2023-02-21T22:25:00.396Z,2.27
2023-02-21T22:27:32.203Z,2.23
2023-02-21T22:30:04.183Z,2.17
2023-02-21T22:32:38.332Z,2.12
2023-02-21T22:35:21.732Z,2.06
2023-02-21T22:37:55.842Z,2.05
2023-02-21T22:40:29.927Z,2.03
2023-02-21T22:43:05.570Z,1.99
2023-02-21T22:45:38.177Z,1.98
2023-02-21T22:48:11.201Z,1.95
2023-02-21T22:50:47.033Z,1.83
2023-02-21T22:53:19.752Z,1.77
2023-02-21T22:55:52.567Z,1.74
2023-02-21T22:58:24.553Z,1.72
2023-02-21T23:01:00.117Z,1.69
2023-02-21T23:03:32.078Z,1.67
2023-02-21T23:06:06.989Z,1.62
2023-02-21T23:08:39.404Z,1.57
2023-02-21T23:11:21.674Z,1.54
2023-02-21T23:13:53.265Z,1.51
2023-02-21T23:16:24.956Z,1.50
2023-02-21T23:18:56.633Z,1.50
2023-02-21T23:21:30.639Z,1.51
2023-02-21T23:24:03.434Z,1.51
2023-02-21T23:26:35.047Z,1.50
2023-02-21T23:29:06.608Z,1.51
2023-02-21T23:31:38.372Z,1.52
2023-02-21T23:34:12.052Z,1.53
2023-02-21T23:36:44.583Z,1.55
2023-02-21T23:39:16.304Z,1.56
2023-02-21T23:41:49.247Z,1.51
2023-02-21T23:44:22.663Z,1.47
2023-02-21T23:46:54.266Z,1.41
2023-02-21T23:49:26.468Z,1.40
2023-02-21T23:51:58.036Z,1.35
2023-02-21T23:54:29.786Z,1.30
2023-02-21T23:57:01.330Z,1.27
2023-02-21T23:59:35.473Z,1.24
